Time;durP1;ratioP1;P1;durP2;ratioP2;P2;SDS_P1;SDS_P2;PMS_P1;PMS_P2;Temp;Humidity;BMP_temperature;BMP_pressure;BME280_temperature;BME280_humidity;BME280_pressure;Samples;Min_cycle;Max_cycle;Signal;HPM_P1;HPM_P2
2023/08/22 00:01:10;;;;;;;10.70;7.50;;;17.80;87.30;;;;;;5093269;28;20035;-78
2023/08/22 00:03:36;;;;;;;11.32;8.32;;;17.80;87.30;;;;;;5092873;28;20742;-79
2023/08/22 00:06:02;;;;;;;12.82;6.85;;;17.80;87.50;;;;;;5093009;28;20126;-81
2023/08/22 00:08:27;;;;;;;10.32;7.07;;;17.80;87.70;;;;;;5075799;28;20525;-78
2023/08/22 00:10:54;;;;;;;10.52;6.68;;;17.70;87.50;;;;;;5059042;28;20044;-82
2023/08/22 00:13:20;;;;;;;11.75;7.28;;;17.80;87.50;;;;;;5093267;28;20108;-80
2023/08/22 00:15:46;;;;;;;10.55;7.45;;;17.90;87.50;;;;;;5075530;28;20397;-78
2023/08/22 00:18:12;;;;;;;9.07;6.30;;;17.90;87.50;;;;;;5059025;28;20105;-81
2023/08/22 00:20:37;;;;;;;10.68;6.60;;;17.90;87.50;;;;;;5092514;28;20036;-79
2023/08/22 00:23:03;;;;;;;11.77;6.97;;;17.90;87.40;;;;;;5092448;28;20050;-79
2023/08/22 00:25:29;;;;;;;8.95;5.60;;;17.90;87.30;;;;;;5075493;28;20036;-80
2023/08/22 00:27:55;;;;;;;9.80;6.65;;;17.90;87.30;;;;;;5092540;28;20048;-82
2023/08/22 00:30:21;;;;;;;13.98;8.00;;;18.00;87.70;;;;;;5092413;28;20119;-80
2023/08/22 00:32:47;;;;;;;9.32;6.55;;;18.00;87.30;;;;;;5075990;28;20052;-80
2023/08/22 00:35:13;;;;;;;8.80;7.18;;;18.00;87.40;;;;;;5075567;28;20466;-79
2023/08/22 00:37:39;;;;;;;11.02;8.10;;;17.90;87.60;;;;;;5091963;28;20492;-78
2023/08/22 00:40:05;;;;;;;10.90;7.18;;;18.00;87.70;;;;;;5092347;28;20036;-79
2023/08/22 00:42:31;;;;;;;10.38;6.70;;;18.00;87.70;;;;;;5075291;28;20036;-81
2023/08/22 00:44:57;;;;;;;10.20;7.55;;;18.00;87.70;;;;;;5092538;28;20043;-83
2023/08/22 00:47:23;;;;;;;13.40;7.85;;;18.00;88.10;;;;;;5092526;28;20048;-80
2023/08/22 00:49:49;;;;;;;13.65;9.02;;;18.00;88.10;;;;;;5075336;28;20040;-79
2023/08/22 00:52:15;;;;;;;12.13;8.18;;;18.00;87.90;;;;;;5092382;28;20036;-79
2023/08/22 00:54:41;;;;;;;13.02;7.85;;;18.00;87.80;;;;;;5079229;28;20483;-79
2023/08/22 00:57:07;;;;;;;18.10;8.98;;;18.00;87.90;;;;;;5096216;28;20442;-82
2023/08/22 00:59:33;;;;;;;15.02;8.85;;;18.00;87.70;;;;;;5096641;28;20101;-80
2023/08/22 01:01:59;;;;;;;11.93;7.88;;;18.00;88.00;;;;;;5079195;28;20040;-79
2023/08/22 01:04:25;;;;;;;10.55;8.05;;;17.90;88.40;;;;;;5095917;28;20035;-80
2023/08/22 01:07:23;;;;;;;10.60;7.47;;;17.90;88.20;;;;;;5079509;28;20131;-82
2023/08/22 01:10:06;;;;;;;11.57;8.48;;;17.90;88.20;;;;;;5074496;28;20134;-80
2023/08/22 01:12:48;;;;;;;13.18;8.65;;;17.80;88.00;;;;;;5096177;28;20368;-79
2023/08/22 01:15:24;;;;;;;12.55;8.15;;;17.80;87.80;;;;;;5079133;28;20480;-80
2023/08/22 01:17:53;;;;;;;10.02;8.05;;;17.70;88.00;;;;;;5096385;28;20048;-80
2023/08/22 01:20:19;;;;;;;13.45;7.80;;;17.70;88.10;;;;;;5095934;28;20036;-81
2023/08/22 01:22:45;;;;;;;14.68;9.15;;;17.70;88.20;;;;;;5096001;28;20028;-79
2023/08/22 01:25:11;;;;;;;13.02;8.18;;;17.70;88.40;;;;;;5078742;28;20046;-82
2023/08/22 01:28:01;;;;;;;12.27;8.85;;;17.60;88.40;;;;;;5078812;28;20040;-82
2023/08/22 01:31:07;;;;;;;12.77;8.15;;;17.60;88.60;;;;;;5095688;28;20051;-81
2023/08/22 01:33:33;;;;;;;9.70;7.90;;;17.60;88.90;;;;;;5078522;28;20044;-79
2023/08/22 01:35:58;;;;;;;12.00;8.02;;;17.60;88.70;;;;;;5095991;28;20165;-83
2023/08/22 01:38:27;;;;;;;11.77;8.43;;;17.50;88.60;;;;;;5061806;28;20488;-80
2023/08/22 01:40:54;;;;;;;12.43;8.15;;;17.50;88.70;;;;;;5095311;28;20043;-78
2023/08/22 01:43:21;;;;;;;11.32;9.52;;;17.50;88.90;;;;;;5078114;28;20118;-80
2023/08/22 01:45:47;;;;;;;11.90;9.00;;;17.50;89.70;;;;;;5095363;28;20131;-80
2023/08/22 01:48:13;;;;;;;15.13;10.18;;;17.50;89.70;;;;;;5078496;28;20048;-81
2023/08/22 01:50:39;;;;;;;19.10;10.45;;;17.50;89.60;;;;;;5078507;28;20048;-81
2023/08/22 01:53:04;;;;;;;15.25;10.50;;;17.50;89.20;;;;;;5078438;28;20415;-81
2023/08/22 01:55:30;;;;;;;17.08;11.00;;;17.50;89.40;;;;;;5095383;28;20085;-82
2023/08/22 01:57:56;;;;;;;15.43;8.63;;;17.40;89.40;;;;;;5078620;28;20094;-80
2023/08/22 02:00:21;;;;;;;12.70;9.05;;;17.40;89.30;;;;;;5095373;28;20032;-80
2023/08/22 02:02:47;;;;;;;13.15;9.27;;;17.40;89.30;;;;;;5078189;28;20046;-79
2023/08/22 02:05:13;;;;;;;10.60;8.93;;;17.30;89.20;;;;;;5077037;28;20119;-79
2023/08/22 02:07:39;;;;;;;12.02;9.27;;;17.30;89.10;;;;;;5077955;28;20059;-79
2023/08/22 02:10:05;;;;;;;15.50;9.77;;;17.30;89.10;;;;;;5078042;28;20063;-80
2023/08/22 02:12:31;;;;;;;13.77;9.90;;;17.30;89.20;;;;;;5078413;28;20074;-80
2023/08/22 02:14:57;;;;;;;11.50;9.63;;;17.20;89.30;;;;;;5094732;28;20073;-84
2023/08/22 02:17:23;;;;;;;13.80;9.43;;;17.20;89.30;;;;;;5077779;28;20040;-78
2023/08/22 02:19:48;;;;;;;15.13;9.30;;;17.20;89.20;;;;;;5078421;28;20036;-82
2023/08/22 02:22:14;;;;;;;15.45;9.63;;;17.20;89.20;;;;;;5078317;28;20036;-79
2023/08/22 02:24:40;;;;;;;15.93;10.50;;;17.10;89.10;;;;;;5077558;28;20036;-81
2023/08/22 02:27:06;;;;;;;15.60;10.57;;;17.10;89.30;;;;;;5094825;28;20232;-80
2023/08/22 02:29:32;;;;;;;15.23;9.75;;;17.00;89.90;;;;;;5061002;28;20043;-81
2023/08/22 02:31:58;;;;;;;12.52;11.20;;;17.10;89.80;;;;;;5094351;28;20043;-81
2023/08/22 02:34:25;;;;;;;14.68;10.25;;;17.00;89.60;;;;;;5077828;28;20089;-79
2023/08/22 02:36:51;;;;;;;14.27;9.60;;;17.00;89.80;;;;;;5094290;28;20075;-81
2023/08/22 02:39:17;;;;;;;12.98;9.73;;;17.00;90.20;;;;;;5094054;28;20047;-79
2023/08/22 02:41:42;;;;;;;15.10;9.85;;;17.00;90.00;;;;;;5094337;28;20036;-79
2023/08/22 02:44:08;;;;;;;12.10;9.68;;;17.00;89.90;;;;;;5077378;28;20028;-79
2023/08/22 02:46:34;;;;;;;11.88;9.48;;;17.00;89.80;;;;;;5094261;28;20434;-84
2023/08/22 02:49:00;;;;;;;9.52;8.55;;;16.90;90.00;;;;;;5077059;28;20411;-80
2023/08/22 02:51:26;;;;;;;16.02;10.07;;;17.00;90.20;;;;;;5060617;28;20056;-80
2023/08/22 02:53:52;;;;;;;12.63;9.60;;;16.90;90.20;;;;;;5077037;28;20470;-80
2023/08/22 02:56:18;;;;;;;14.93;9.60;;;17.00;90.30;;;;;;5077097;28;20035;-79
2023/08/22 02:58:44;;;;;;;12.38;9.63;;;16.90;90.40;;;;;;5093753;28;20498;-78
2023/08/22 03:01:10;;;;;;;13.18;10.20;;;16.90;91.00;;;;;;5093792;28;20519;-82
2023/08/22 03:03:35;;;;;;;17.52;11.02;;;16.90;90.90;;;;;;5077330;28;20075;-81
2023/08/22 03:06:01;;;;;;;14.00;10.77;;;16.80;90.90;;;;;;5077063;28;20044;-80
2023/08/22 03:08:27;;;;;;;17.58;10.55;;;16.80;90.90;;;;;;5093891;28;20043;-80
2023/08/22 03:10:58;;;;;;;13.77;10.63;;;16.80;90.70;;;;;;5076999;28;20131;-80
2023/08/22 03:13:23;;;;;;;16.15;11.90;;;16.80;90.80;;;;;;5093687;28;20044;-79
2023/08/22 03:15:49;;;;;;;20.73;11.90;;;16.70;91.20;;;;;;5076551;28;20093;-80
2023/08/22 03:18:15;;;;;;;21.27;13.07;;;16.70;91.10;;;;;;5093294;28;20044;-80
2023/08/22 03:20:40;;;;;;;14.10;11.18;;;16.70;91.40;;;;;;5076816;28;20036;-79
2023/08/22 03:23:06;;;;;;;15.23;10.73;;;16.70;91.60;;;;;;5077197;28;20048;-81
2023/08/22 03:25:32;;;;;;;14.63;11.13;;;16.60;91.50;;;;;;5093471;28;20400;-81
2023/08/22 03:27:57;;;;;;;14.50;12.20;;;16.60;91.40;;;;;;5093785;28;20048;-81
2023/08/22 03:30:23;;;;;;;17.98;11.70;;;16.60;91.70;;;;;;5076611;28;20552;-79
2023/08/22 03:32:49;;;;;;;19.58;12.43;;;16.50;92.20;;;;;;5076806;28;20047;-82
2023/08/22 03:35:14;;;;;;;16.30;12.88;;;16.50;91.90;;;;;;5093175;28;20541;-78
2023/08/22 03:37:40;;;;;;;13.93;12.40;;;16.50;91.90;;;;;;5093751;28;20071;-80
2023/08/22 03:40:07;;;;;;;15.00;12.30;;;16.50;91.80;;;;;;5076712;28;20701;-80
2023/08/22 03:42:32;;;;;;;17.33;11.27;;;16.50;91.60;;;;;;5076466;28;20040;-82
2023/08/22 03:44:58;;;;;;;14.10;10.98;;;16.50;91.40;;;;;;5059410;28;20109;-81
2023/08/22 03:47:24;;;;;;;16.52;11.60;;;16.50;91.30;;;;;;5076104;28;20076;-80
2023/08/22 03:49:50;;;;;;;15.82;12.63;;;16.50;91.40;;;;;;5076006;28;20127;-81
2023/08/22 03:52:15;;;;;;;15.95;12.25;;;16.50;91.40;;;;;;5075651;28;20059;-80
2023/08/22 03:54:41;;;;;;;18.23;13.45;;;16.40;91.40;;;;;;5075629;28;20054;-79
2023/08/22 03:57:07;;;;;;;17.08;12.27;;;16.40;91.30;;;;;;5092828;28;20362;-81
2023/08/22 03:59:32;;;;;;;16.55;12.77;;;16.50;91.40;;;;;;5059152;28;20047;-78
2023/08/22 04:01:58;;;;;;;15.45;11.25;;;16.40;91.40;;;;;;5092893;28;20069;-79
2023/08/22 04:04:24;;;;;;;15.60;12.25;;;16.40;91.30;;;;;;5092760;28;20038;-82
2023/08/22 04:06:49;;;;;;;18.08;11.90;;;16.40;91.30;;;;;;5075744;28;20063;-80
2023/08/22 04:09:15;;;;;;;15.18;11.70;;;16.40;91.20;;;;;;5076030;28;20173;-80
2023/08/22 04:11:42;;;;;;;18.80;11.73;;;16.30;91.10;;;;;;5075886;28;20484;-81
2023/08/22 04:14:08;;;;;;;16.27;12.68;;;16.30;91.10;;;;;;5092457;28;20040;-81
2023/08/22 04:16:34;;;;;;;11.65;10.07;;;16.40;91.10;;;;;;5075849;28;20350;-81
2023/08/22 04:18:59;;;;;;;17.00;11.80;;;16.30;91.10;;;;;;5075715;28;20476;-83
2023/08/22 04:21:25;;;;;;;15.02;11.27;;;16.30;91.10;;;;;;5089873;28;20571;-84
2023/08/22 04:23:54;;;;;;;16.17;12.32;;;16.30;91.10;;;;;;5072564;28;20389;-81
2023/08/22 04:26:20;;;;;;;14.63;10.50;;;16.30;91.40;;;;;;5073345;28;20048;-79
2023/08/22 04:28:46;;;;;;;13.70;11.82;;;16.30;91.90;;;;;;5089790;28;20535;-77
2023/08/22 04:31:11;;;;;;;16.95;12.65;;;16.40;91.80;;;;;;5089929;28;20617;-78
2023/08/22 04:33:37;;;;;;;14.70;13.02;;;16.40;91.80;;;;;;5073476;28;20040;-78
2023/08/22 04:36:04;;;;;;;11.38;9.88;;;16.30;91.80;;;;;;5091228;28;20043;-79
2023/08/22 04:38:29;;;;;;;13.25;10.40;;;16.30;91.60;;;;;;5091985;28;20048;-79
2023/08/22 04:40:55;;;;;;;16.90;10.50;;;16.30;91.50;;;;;;5058135;28;20500;-79
2023/08/22 04:43:21;;;;;;;16.17;10.23;;;16.40;91.60;;;;;;5075150;28;20086;-76
2023/08/22 04:45:49;;;;;;;14.77;10.65;;;16.40;91.60;;;;;;5074841;28;20052;-76
2023/08/22 04:48:15;;;;;;;13.63;9.45;;;16.40;91.50;;;;;;5091624;28;20564;-78
2023/08/22 04:50:41;;;;;;;8.80;7.25;;;16.30;91.40;;;;;;5091738;28;20139;-79
2023/08/22 04:53:06;;;;;;;16.70;10.20;;;16.30;91.20;;;;;;5091478;28;20416;-78
2023/08/22 04:55:32;;;;;;;12.25;7.97;;;16.30;91.30;;;;;;5091411;28;20078;-77
2023/08/22 04:57:58;;;;;;;15.70;9.38;;;16.30;91.30;;;;;;5058096;28;20131;-80
2023/08/22 05:00:23;;;;;;;7.57;6.75;;;16.30;91.30;;;;;;5091510;28;20040;-78
2023/08/22 05:02:49;;;;;;;7.68;5.38;;;16.30;91.40;;;;;;5091592;28;20032;-78
2023/08/22 05:05:15;;;;;;;6.30;5.18;;;16.30;91.30;;;;;;5074747;28;20404;-78
2023/08/22 05:07:41;;;;;;;5.35;4.40;;;16.20;91.10;;;;;;5074668;28;20032;-77
2023/08/22 05:10:07;;;;;;;6.35;3.70;;;16.20;91.10;;;;;;5091589;28;20197;-78
2023/08/22 05:12:32;;;;;;;5.15;3.88;;;16.10;91.00;;;;;;5091441;28;20543;-78
2023/08/22 05:14:58;;;;;;;5.80;3.25;;;16.00;90.80;;;;;;5074504;28;20040;-78
2023/08/22 05:17:24;;;;;;;4.22;3.67;;;16.00;90.70;;;;;;5074567;28;20154;-79
2023/08/22 05:19:49;;;;;;;5.68;4.13;;;16.00;90.80;;;;;;5074238;28;20062;-78
2023/08/22 05:22:15;;;;;;;7.47;4.78;;;15.90;90.80;;;;;;5074562;28;20047;-79
2023/08/22 05:24:41;;;;;;;5.55;4.80;;;16.00;90.90;;;;;;5091223;28;20047;-76
2023/08/22 05:27:06;;;;;;;7.22;5.50;;;16.00;90.80;;;;;;5091246;28;20046;-77
2023/08/22 05:29:32;;;;;;;7.18;5.93;;;16.00;90.90;;;;;;5091193;28;20127;-77
2023/08/22 05:31:58;;;;;;;6.40;5.60;;;16.10;90.90;;;;;;5074638;28;20040;-77
2023/08/22 05:34:23;;;;;;;9.15;6.55;;;16.10;91.00;;;;;;5091460;28;20502;-76
2023/08/22 05:36:49;;;;;;;12.27;6.57;;;16.20;91.00;;;;;;5074301;28;20118;-75
2023/08/22 05:39:15;;;;;;;9.38;7.00;;;16.30;91.10;;;;;;5074227;28;20047;-75
2023/08/22 05:41:40;;;;;;;9.43;7.47;;;16.30;91.10;;;;;;5095048;28;20147;-78
2023/08/22 05:44:06;;;;;;;15.07;10.70;;;16.40;91.20;;;;;;5094681;28;20047;-78
2023/08/22 05:46:33;;;;;;;14.27;11.68;;;16.50;91.40;;;;;;5078035;28;20039;-79
2023/08/22 05:48:59;;;;;;;14.10;10.70;;;16.60;91.70;;;;;;5061298;28;20050;-79
2023/08/22 05:51:24;;;;;;;15.43;10.68;;;16.60;91.70;;;;;;5094558;28;20122;-79
2023/08/22 05:53:50;;;;;;;12.77;11.27;;;16.70;91.60;;;;;;5077646;28;20052;-79
2023/08/22 05:56:16;;;;;;;17.75;11.00;;;16.80;91.60;;;;;;5077553;28;20152;-78
2023/08/22 05:58:42;;;;;;;14.15;11.02;;;16.90;91.70;;;;;;5094749;28;20079;-81
2023/08/22 06:01:10;;;;;;;15.80;11.95;;;17.00;91.80;;;;;;5077524;28;20484;-80
2023/08/22 06:03:38;;;;;;;15.32;12.43;;;17.10;91.90;;;;;;5060800;28;20040;-80
2023/08/22 06:06:04;;;;;;;16.58;12.15;;;17.20;91.80;;;;;;5094622;28;20465;-79
2023/08/22 06:08:30;;;;;;;17.38;12.65;;;17.20;91.70;;;;;;5094551;28;20040;-79
2023/08/22 06:10:56;;;;;;;16.52;12.00;;;17.30;91.70;;;;;;5094261;28;20040;-80
2023/08/22 06:13:22;;;;;;;15.13;11.82;;;17.40;91.70;;;;;;5077341;28;20047;-79
2023/08/22 06:15:48;;;;;;;12.55;11.10;;;17.40;91.50;;;;;;5094225;28;20059;-77
2023/08/22 06:18:13;;;;;;;15.30;10.57;;;17.50;91.70;;;;;;5077362;28;20480;-76
2023/08/22 06:20:39;;;;;;;14.32;12.07;;;17.60;91.90;;;;;;5077187;28;20112;-76
2023/08/22 06:23:06;;;;;;;15.00;11.95;;;17.60;91.70;;;;;;5094268;28;20089;-75
2023/08/22 06:25:35;;;;;;;17.13;11.32;;;17.70;91.60;;;;;;5077284;28;20048;-76
2023/08/22 06:28:00;;;;;;;14.93;12.05;;;17.80;91.70;;;;;;5093987;28;20040;-76
2023/08/22 06:30:27;;;;;;;14.75;12.43;;;17.90;91.80;;;;;;5076968;28;20044;-76
2023/08/22 06:32:53;;;;;;;17.15;11.75;;;18.00;91.60;;;;;;5077281;28;20039;-77
2023/08/22 06:35:18;;;;;;;16.30;11.15;;;18.10;91.50;;;;;;5093688;28;20040;-79
2023/08/22 06:37:44;;;;;;;12.18;10.75;;;18.20;91.30;;;;;;5093732;28;20078;-77
2023/08/22 06:40:11;;;;;;;13.95;10.20;;;18.20;91.10;;;;;;5093612;28;20071;-78
2023/08/22 06:42:37;;;;;;;16.17;10.50;;;18.40;90.90;;;;;;5077260;28;20036;-77
2023/08/22 06:45:03;;;;;;;13.45;10.13;;;18.40;90.80;;;;;;5093545;28;20326;-76
2023/08/22 06:47:29;;;;;;;15.05;10.30;;;18.50;90.50;;;;;;5093802;28;20046;-77
2023/08/22 06:49:54;;;;;;;13.80;10.13;;;18.60;90.50;;;;;;5077109;28;20040;-76
2023/08/22 06:52:20;;;;;;;12.68;9.43;;;18.70;90.20;;;;;;5075930;28;20052;-77
2023/08/22 06:54:46;;;;;;;14.10;8.65;;;18.70;89.80;;;;;;5076811;28;20047;-77
2023/08/22 06:57:11;;;;;;;12.25;8.85;;;18.80;89.40;;;;;;5093269;28;20407;-76
2023/08/22 06:59:37;;;;;;;11.35;8.07;;;18.90;89.30;;;;;;5093498;28;20052;-76
2023/08/22 07:02:03;;;;;;;9.73;8.32;;;18.90;89.10;;;;;;5076403;28;20526;-77
2023/08/22 07:04:32;;;;;;;10.40;7.63;;;18.90;88.60;;;;;;5060038;28;20121;-76
2023/08/22 07:06:57;;;;;;;9.05;8.15;;;18.90;88.30;;;;;;5093322;28;20059;-76
2023/08/22 07:09:23;;;;;;;18.67;7.82;;;19.00;88.00;;;;;;5093015;28;20488;-75
2023/08/22 07:11:49;;;;;;;11.23;7.72;;;19.10;88.10;;;;;;5073819;28;20060;-77
2023/08/22 07:14:15;;;;;;;12.07;8.30;;;19.10;87.80;;;;;;5066285;28;20484;-77
2023/08/22 07:16:40;;;;;;;9.60;7.68;;;19.20;87.80;;;;;;5035650;28;20039;-78
2023/08/22 07:19:06;;;;;;;9.30;7.75;;;19.20;87.60;;;;;;5084710;28;20047;-78
2023/08/22 07:21:32;;;;;;;12.15;8.05;;;19.20;87.40;;;;;;5085077;28;20143;-77
2023/08/22 07:23:57;;;;;;;11.05;7.57;;;19.20;87.00;;;;;;5084806;28;20497;-77
2023/08/22 07:26:23;;;;;;;14.98;8.90;;;19.20;87.00;;;;;;5068290;28;20049;-79
2023/08/22 07:28:49;;;;;;;8.43;7.07;;;19.30;87.20;;;;;;5084937;28;20032;-80
2023/08/22 07:31:15;;;;;;;10.82;7.50;;;19.30;87.10;;;;;;5083022;28;20040;-78
2023/08/22 07:33:40;;;;;;;10.70;6.85;;;19.40;87.10;;;;;;5067875;28;20040;-80
2023/08/22 07:36:15;;;;;;;10.38;7.20;;;19.50;86.90;;;;;;5082671;28;20051;-79
2023/08/22 07:38:41;;;;;;;9.68;7.00;;;19.50;86.50;;;;;;5080807;28;20078;-78
2023/08/22 07:41:06;;;;;;;9.93;7.07;;;19.60;86.50;;;;;;5065413;28;20078;-80
2023/08/22 07:43:32;;;;;;;9.77;7.50;;;19.60;86.50;;;;;;5068083;28;20040;-79
2023/08/22 07:45:58;;;;;;;12.57;7.85;;;19.60;86.60;;;;;;5067304;28;20536;-77
2023/08/22 07:48:23;;;;;;;10.23;6.90;;;19.60;86.50;;;;;;5087633;28;20044;-78
2023/08/22 07:50:49;;;;;;;9.23;6.63;;;19.70;86.50;;;;;;5091867;28;20055;-82
2023/08/22 07:53:15;;;;;;;10.32;6.60;;;19.80;86.50;;;;;;5075200;28;20106;-78
2023/08/22 07:55:41;;;;;;;13.05;6.20;;;19.80;86.40;;;;;;5092145;28;20040;-81
2023/08/22 07:58:06;;;;;;;17.85;8.85;;;19.90;86.30;;;;;;5075374;28;20562;-81
2023/08/22 08:00:33;;;;;;;11.38;6.68;;;19.90;85.90;;;;;;5058658;28;20038;-78
2023/08/22 08:02:59;;;;;;;10.32;7.40;;;20.10;85.60;;;;;;5091438;28;20496;-78
2023/08/22 08:05:26;;;;;;;13.00;7.63;;;20.30;85.10;;;;;;5092469;28;20044;-80
2023/08/22 08:07:52;;;;;;;10.10;6.80;;;20.40;85.20;;;;;;5075452;28;20044;-82
2023/08/22 08:10:18;;;;;;;11.15;6.65;;;20.50;84.90;;;;;;5075348;28;20073;-80
2023/08/22 08:12:44;;;;;;;14.80;8.13;;;20.60;84.60;;;;;;5075249;28;20085;-80
2023/08/22 08:15:09;;;;;;;11.30;7.68;;;20.80;84.50;;;;;;5091982;28;20036;-84
2023/08/22 08:17:35;;;;;;;13.48;8.32;;;20.90;84.40;;;;;;5075213;28;20074;-80
2023/08/22 08:20:02;;;;;;;12.45;8.93;;;20.90;84.40;;;;;;5091963;28;20028;-84
2023/08/22 08:22:29;;;;;;;13.27;9.52;;;21.00;84.60;;;;;;5058719;28;20124;-83
2023/08/22 08:24:54;;;;;;;11.95;8.80;;;21.20;84.60;;;;;;5075131;28;20036;-79
2023/08/22 08:27:21;;;;;;;13.90;9.27;;;21.10;84.60;;;;;;5075338;28;20047;-78
2023/08/22 08:29:47;;;;;;;13.63;10.02;;;21.10;84.80;;;;;;5091818;28;20051;-78
2023/08/22 08:32:12;;;;;;;13.95;8.82;;;21.10;84.50;;;;;;5075002;28;20112;-80
2023/08/22 08:34:38;;;;;;;10.30;9.20;;;21.10;84.40;;;;;;5075031;28;20517;-82
2023/08/22 08:37:04;;;;;;;14.55;10.15;;;21.20;84.40;;;;;;5074893;28;20036;-82
2023/08/22 08:39:30;;;;;;;14.65;9.07;;;21.30;84.20;;;;;;5058158;28;20040;-84
2023/08/22 08:42:14;;;;;;;14.35;9.15;;;21.40;84.20;;;;;;5075029;28;20043;-84
2023/08/22 08:44:40;;;;;;;12.85;8.65;;;21.50;83.80;;;;;;5075141;28;20052;-84
2023/08/22 08:47:08;;;;;;;12.10;8.60;;;21.50;83.10;;;;;;5074895;28;20040;-81
2023/08/22 08:49:38;;;;;;;12.40;9.10;;;21.50;82.90;;;;;;5074680;28;20044;-82
2023/08/22 08:52:05;;;;;;;15.95;9.80;;;21.40;82.90;;;;;;5091621;28;20048;-81
2023/08/22 08:54:32;;;;;;;16.15;10.15;;;21.40;83.50;;;;;;5091868;28;20106;-82
2023/08/22 08:56:59;;;;;;;13.52;8.98;;;21.30;83.40;;;;;;5074725;28;20059;-81
2023/08/22 08:59:25;;;;;;;14.73;8.90;;;21.30;83.60;;;;;;5075025;28;20394;-81
2023/08/22 09:01:51;;;;;;;15.38;8.50;;;21.30;83.50;;;;;;5091534;28;20072;-82
2023/08/22 09:04:20;;;;;;;13.20;8.82;;;21.30;83.30;;;;;;5074887;28;20087;-82
2023/08/22 09:06:47;;;;;;;16.75;9.63;;;21.40;83.40;;;;;;5091772;28;20054;-82
2023/08/22 09:09:14;;;;;;;12.25;9.10;;;21.40;83.60;;;;;;5091616;28;20078;-81
2023/08/22 09:11:45;;;;;;;12.80;9.20;;;21.40;83.60;;;;;;5074848;28;20044;-80
2023/08/22 09:14:11;;;;;;;12.23;8.73;;;21.50;83.40;;;;;;5092982;28;20055;-80
2023/08/22 09:16:38;;;;;;;10.68;8.95;;;21.70;83.00;;;;;;5078462;28;20081;-83
2023/08/22 09:19:06;;;;;;;15.60;9.45;;;21.80;82.60;;;;;;5095316;28;20078;-81
2023/08/22 09:21:31;;;;;;;14.20;8.43;;;22.00;82.20;;;;;;5062199;28;20036;-82
2023/08/22 09:24:10;;;;;;;12.45;8.35;;;22.00;81.80;;;;;;5078357;28;20450;-81
2023/08/22 09:26:37;;;;;;;12.55;8.27;;;22.20;81.40;;;;;;5078146;28;20047;-81
2023/08/22 09:29:07;;;;;;;12.43;7.55;;;22.30;80.40;;;;;;5095039;28;20050;-82
2023/08/22 09:31:36;;;;;;;12.85;9.07;;;22.30;80.80;;;;;;5061752;28;20040;-81
2023/08/22 09:34:11;;;;;;;13.32;9.90;;;22.20;80.60;;;;;;5095050;28;20101;-81
2023/08/22 09:36:45;;;;;;;11.93;8.13;;;22.20;80.70;;;;;;5094809;28;20194;-80
2023/08/22 09:39:21;;;;;;;10.93;7.70;;;22.20;80.60;;;;;;5077922;28;20484;-80
2023/08/22 09:41:55;;;;;;;13.68;9.13;;;22.20;80.80;;;;;;5094860;28;20044;-83
2023/08/22 09:44:25;;;;;;;12.80;8.68;;;22.40;80.80;;;;;;5077924;28;20044;-83
2023/08/22 09:46:52;;;;;;;13.50;9.13;;;22.50;80.70;;;;;;5094758;28;20051;-80
2023/08/22 09:49:19;;;;;;;14.43;9.15;;;22.60;80.30;;;;;;5077589;28;20484;-83
2023/08/22 09:51:50;;;;;;;16.88;9.20;;;22.70;80.30;;;;;;5094636;28;20108;-82
2023/08/22 09:54:16;;;;;;;16.17;9.90;;;22.80;79.90;;;;;;5077742;28;20044;-81
2023/08/22 09:56:43;;;;;;;14.70;9.40;;;22.80;80.10;;;;;;5094443;28;20040;-80
2023/08/22 09:59:13;;;;;;;18.77;10.52;;;22.80;79.90;;;;;;5094761;28;20039;-80
2023/08/22 10:01:39;;;;;;;18.98;11.27;;;22.80;79.50;;;;;;5094654;28;20044;-82
2023/08/22 10:04:06;;;;;;;16.75;10.95;;;22.80;79.40;;;;;;5094451;28;20366;-82
2023/08/22 10:06:34;;;;;;;12.98;9.43;;;22.80;79.90;;;;;;5094672;28;20460;-80
2023/08/22 10:09:07;;;;;;;14.70;9.45;;;22.90;79.70;;;;;;5094571;28;20048;-82
2023/08/22 10:11:36;;;;;;;12.75;9.80;;;23.00;79.30;;;;;;5094318;28;20488;-82
2023/08/22 10:14:03;;;;;;;11.10;9.77;;;23.20;78.60;;;;;;5077863;28;20047;-84
2023/08/22 10:16:30;;;;;;;14.95;10.10;;;23.30;78.50;;;;;;5094084;28;20040;-80
2023/08/22 10:19:02;;;;;;;14.23;9.93;;;23.40;77.60;;;;;;5094382;28;20097;-81
2023/08/22 10:21:33;;;;;;;13.65;9.38;;;23.50;77.20;;;;;;5077494;28;20036;-85
2023/08/22 10:23:59;;;;;;;12.90;8.07;;;23.50;76.60;;;;;;5060741;28;20036;-83
2023/08/22 10:26:47;;;;;;;11.70;7.95;;;23.60;76.00;;;;;;5076670;28;20044;-82
2023/08/22 10:29:19;;;;;;;9.38;6.32;;;23.90;75.10;;;;;;5093171;28;20109;-83
2023/08/22 10:32:00;;;;;;;11.18;5.85;;;23.90;74.00;;;;;;5077089;28;20040;-82
2023/08/22 10:34:38;;;;;;;6.20;3.88;;;24.00;72.90;;;;;;5077249;28;20101;-82
2023/08/22 10:37:13;;;;;;;8.02;3.92;;;24.00;71.10;;;;;;5093661;28;20040;-80
2023/08/22 10:39:40;;;;;;;6.55;4.80;;;24.10;69.40;;;;;;5076790;28;20036;-80
2023/08/22 10:42:07;;;;;;;6.57;3.08;;;24.00;69.20;;;;;;5076892;28;20047;-82
2023/08/22 10:44:36;;;;;;;6.72;4.70;;;24.00;69.00;;;;;;5060287;28;20067;-82
2023/08/22 10:47:03;;;;;;;6.10;3.63;;;24.20;68.70;;;;;;5060778;28;20127;-80
2023/08/22 10:49:34;;;;;;;8.70;5.82;;;24.30;68.00;;;;;;5076697;28;20040;-81
2023/08/22 10:52:10;;;;;;;7.30;6.03;;;24.30;68.10;;;;;;5060178;28;20056;-80
2023/08/22 10:55:11;;;;;;;11.32;6.72;;;24.40;69.10;;;;;;5093497;28;20048;-80
2023/08/22 10:57:48;;;;;;;9.20;6.43;;;24.60;68.90;;;;;;5076611;28;20292;-83
2023/08/22 11:00:23;;;;;;;11.85;7.32;;;24.60;69.00;;;;;;5076905;28;20042;-82
2023/08/22 11:03:07;;;;;;;7.60;6.68;;;24.70;69.00;;;;;;5076719;28;20040;-81
2023/08/22 11:05:34;;;;;;;13.43;8.05;;;24.90;68.60;;;;;;5043290;28;20047;-81
2023/08/22 11:07:59;;;;;;;12.05;7.28;;;24.80;68.50;;;;;;5093462;28;20048;-81
2023/08/22 11:10:25;;;;;;;14.70;8.43;;;24.60;69.00;;;;;;5093192;28;20450;-81
2023/08/22 11:12:54;;;;;;;12.90;7.85;;;24.60;69.30;;;;;;5059815;28;20121;-81
2023/08/22 11:15:20;;;;;;;14.45;7.82;;;24.50;69.00;;;;;;5076026;28;20043;-82
2023/08/22 11:17:47;;;;;;;11.90;8.68;;;24.60;68.90;;;;;;5059625;28;20040;-81
2023/08/22 11:20:14;;;;;;;10.95;7.57;;;24.60;69.00;;;;;;5093150;28;20058;-81
2023/08/22 11:22:40;;;;;;;10.85;6.45;;;24.90;68.90;;;;;;5093277;28;20123;-79
2023/08/22 11:25:06;;;;;;;11.27;6.70;;;25.10;68.90;;;;;;5092948;28;20123;-79
2023/08/22 11:27:35;;;;;;;10.05;6.80;;;25.20;68.00;;;;;;5075881;28;20079;-82
2023/08/22 11:30:01;;;;;;;13.50;6.07;;;25.30;67.90;;;;;;5092642;28;20108;-81
2023/08/22 11:32:38;;;;;;;9.30;5.78;;;25.40;66.50;;;;;;5075846;28;20055;-80
2023/08/22 11:35:10;;;;;;;9.70;5.75;;;25.50;65.40;;;;;;5093397;28;20065;-82
2023/08/22 11:37:38;;;;;;;12.45;6.20;;;25.70;64.30;;;;;;5075677;28;20040;-82
2023/08/22 11:40:05;;;;;;;10.65;7.68;;;25.90;64.70;;;;;;5092753;28;20430;-80
2023/08/22 11:42:33;;;;;;;9.90;6.95;;;25.80;63.90;;;;;;5092546;28;20170;-82
2023/08/22 11:45:05;;;;;;;9.18;6.20;;;25.60;64.70;;;;;;5075894;28;20040;-81
2023/08/22 11:47:50;;;;;;;13.80;6.97;;;25.60;64.60;;;;;;5075582;28;20496;-80
2023/08/22 11:50:23;;;;;;;8.82;6.00;;;25.50;64.30;;;;;;5075711;28;20149;-82
2023/08/22 11:52:51;;;;;;;9.85;6.20;;;25.50;64.30;;;;;;5092181;28;20101;-83
2023/08/22 11:55:27;;;;;;;9.68;5.38;;;25.60;64.40;;;;;;5059266;28;20385;-84
2023/08/22 11:57:55;;;;;;;8.73;6.03;;;25.60;63.60;;;;;;5075471;28;20047;-80
2023/08/22 12:00:23;;;;;;;9.70;5.70;;;25.50;63.90;;;;;;5079780;28;20390;-81
2023/08/22 12:02:53;;;;;;;7.72;4.90;;;25.60;64.30;;;;;;5065847;28;20036;-82
2023/08/22 12:05:40;;;;;;;7.28;4.13;;;25.50;63.30;;;;;;5053065;28;20050;-80
2023/08/22 12:08:05;;;;;;;8.90;5.10;;;25.60;63.20;;;;;;5071910;28;20476;-83
2023/08/22 12:10:52;;;;;;;7.63;4.13;;;25.80;63.10;;;;;;5071999;28;20036;-81
2023/08/22 12:13:22;;;;;;;7.88;5.43;;;25.80;62.40;;;;;;5071872;28;20036;-80
2023/08/22 12:15:49;;;;;;;9.77;5.65;;;25.90;62.00;;;;;;5072824;28;20040;-81
2023/08/22 12:18:17;;;;;;;6.97;4.55;;;25.90;62.50;;;;;;5079720;28;20040;-82
2023/08/22 12:20:44;;;;;;;8.65;5.15;;;26.00;61.20;;;;;;5038278;28;20047;-81
2023/08/22 12:23:11;;;;;;;9.05;5.65;;;26.00;61.80;;;;;;5054957;28;20047;-81
2023/08/22 12:25:39;;;;;;;7.40;5.03;;;25.90;61.90;;;;;;5055111;28;20044;-83
2023/08/22 12:28:05;;;;;;;9.02;4.97;;;26.00;62.20;;;;;;5055164;28;20047;-82
2023/08/22 12:30:33;;;;;;;10.15;5.50;;;26.10;61.90;;;;;;5054933;28;20477;-84
2023/08/22 12:33:00;;;;;;;9.18;5.28;;;26.10;61.60;;;;;;5038979;28;20036;-82
2023/08/22 12:35:26;;;;;;;8.82;4.85;;;26.10;61.40;;;;;;5071504;28;20055;-80
2023/08/22 12:37:51;;;;;;;12.23;5.05;;;26.30;61.30;;;;;;5054897;28;20033;-81